Time;durP1;ratioP1;P1;durP2;ratioP2;P2;SDS_P1;SDS_P2;PMS_P1;PMS_P2;Temp;Humidity;BMP_temperature;BMP_pressure;BME280_temperature;BME280_humidity;BME280_pressure;Samples;Min_cycle;Max_cycle;Signal;HPM_P1;HPM_P2
2024/03/23 00:01:29;;;;;;;230.63;79.03;;;230.50;2252.80;;;;;;5031181;28;20021;-74
2024/03/23 00:03:56;;;;;;;381.98;131.02;;;230.40;2252.80;;;;;;5031511;28;20021;-75
2024/03/23 00:06:23;;;;;;;183.00;68.82;;;230.40;2252.80;;;;;;5030076;28;20096;-75
2024/03/23 00:08:49;;;;;;;76.65;31.30;;;205.70;2252.80;;;;;;5031610;28;20083;-74
2024/03/23 00:11:16;;;;;;;91.28;39.30;;;205.60;2252.80;;;;;;5029345;28;20028;-75
2024/03/23 00:13:43;;;;;;;348.13;131.45;;;205.60;2252.80;;;;;;5033098;28;20037;-75
2024/03/23 00:16:09;;;;;;;278.15;113.78;;;205.30;2252.80;;;;;;5033875;28;20037;-74
2024/03/23 00:18:36;;;;;;;177.68;76.53;;;205.50;2252.80;;;;;;5051855;28;20029;-74
2024/03/23 00:21:03;;;;;;;138.70;61.22;;;205.60;2252.80;;;;;;5038396;28;20062;-75
2024/03/23 00:23:30;;;;;;;76.57;39.05;;;205.60;2252.80;;;;;;5029247;28;20037;-73
2024/03/23 00:25:56;;;;;;;117.25;53.88;;;205.30;2252.80;;;;;;5015357;28;20165;-74
2024/03/23 00:31:55;;;;;;;55.25;28.20;;;205.40;2252.80;;;;;;4968742;28;20067;-73
2024/03/23 00:34:22;;;;;;;54.92;30.27;;;205.40;2252.80;;;;;;4975448;28;20490;-74
2024/03/23 00:36:48;;;;;;;58.75;31.35;;;205.10;2252.80;;;;;;4962966;28;20058;-75
2024/03/23 00:41:58;;;;;;;80.70;42.20;;;205.40;2252.80;;;;;;5038830;22;20507;-76
2024/03/23 00:44:24;;;;;;;69.28;36.60;;;;;;;;;;5038253;28;20192;-74
2024/03/23 00:46:51;;;;;;;58.45;30.17;;;205.60;2252.80;;;;;;5050865;28;20017;-74
2024/03/23 00:49:17;;;;;;;66.10;35.75;;;;;;;;;;5050465;28;20295;-74
2024/03/23 00:51:44;;;;;;;73.25;37.55;;;;;;;;;;5047689;28;20013;-73
2024/03/23 00:54:10;;;;;;;72.78;36.35;;;;;;;;;;5045319;28;20048;-75
2024/03/23 00:56:36;;;;;;;71.97;37.13;;;;;;;;;;5026295;28;20025;-74
2024/03/23 00:59:02;;;;;;;68.00;33.78;;;;;;;;;;5045003;28;20045;-75
2024/03/23 01:01:28;;;;;;;72.18;35.53;;;;;;;;;;5048234;28;20075;-73
2024/03/23 01:04:03;;;;;;;80.78;44.50;;;;;;;;;;5030181;28;20036;-76
2024/03/23 01:06:29;;;;;;;70.82;37.70;;;;;;;;;;5045034;28;20044;-73
2024/03/23 01:08:55;;;;;;;52.85;30.45;;;;;;;;;;5051349;28;20017;-74
2024/03/23 01:11:21;;;;;;;50.20;28.00;;;;;;;;;;5051176;28;20112;-74
2024/03/23 01:13:48;;;;;;;42.38;25.25;;;;;;;;;;5051380;28;20451;-74
2024/03/23 01:16:13;;;;;;;61.22;32.35;;;205.30;2252.80;;;;;;5042615;28;20480;-75
2024/03/23 01:18:39;;;;;;;61.65;31.38;;;205.00;2252.80;;;;;;5050671;28;20048;-73
2024/03/23 01:26:26;;;;;;;43.30;23.85;;;204.80;2252.80;;;;;;5115849;22;20066;-77
2024/03/23 01:28:52;;;;;;;41.55;22.58;;;204.80;2252.80;;;;;;5011695;28;20484;-76
2024/03/23 01:31:54;;;;;;;40.42;23.63;;;180.10;1894.40;;;;;;5008459;28;20061;-75
2024/03/23 01:34:20;;;;;;;44.53;24.05;;;180.10;2022.40;;;;;;5010255;28;20045;-74
2024/03/23 01:36:46;;;;;;;48.60;25.48;;;180.10;2252.80;;;;;;4991717;28;20466;-73
2024/03/23 01:39:14;;;;;;;43.65;23.90;;;180.10;2252.80;;;;;;5007097;28;20034;-73
2024/03/23 01:41:42;;;;;;;42.75;24.27;;;180.10;1920.00;;;;;;5010627;28;20021;-72
2024/03/23 01:44:08;;;;;;;45.42;24.38;;;204.80;2252.80;;;;;;5011079;28;20030;-73
2024/03/23 01:46:37;;;;;;;42.38;23.75;;;204.90;2252.80;;;;;;5011372;28;20033;-72
2024/03/23 01:49:05;;;;;;;48.50;24.85;;;204.80;2252.80;;;;;;5010973;28;20105;-74
2024/03/23 01:51:32;;;;;;;44.78;24.08;;;204.80;2252.80;;;;;;5014260;28;20022;-76
2024/03/23 01:54:10;;;;;;;48.35;25.20;;;204.80;2252.80;;;;;;5015933;28;20492;-78
2024/03/23 01:56:36;;;;;;;48.50;25.58;;;204.90;2252.80;;;;;;5015208;28;20057;-76
2024/03/23 01:59:08;;;;;;;44.97;24.83;;;204.90;2252.80;;;;;;5010175;28;20034;-74
2024/03/23 02:01:38;;;;;;;48.50;24.95;;;204.90;2252.80;;;;;;5013311;28;20053;-73
2024/03/23 02:04:04;;;;;;;52.17;26.13;;;204.90;2252.80;;;;;;5014716;28;20029;-74
2024/03/23 02:06:30;;;;;;;44.15;24.75;;;204.90;2252.80;;;;;;5014499;28;20018;-73
2024/03/23 02:08:56;;;;;;;41.75;23.88;;;204.90;2252.80;;;;;;5014731;28;20022;-72
2024/03/23 02:11:22;;;;;;;40.20;23.67;;;204.90;2252.80;;;;;;5014864;28;20025;-72
2024/03/23 02:13:48;;;;;;;41.47;24.65;;;204.90;2252.80;;;;;;5014851;28;20030;-74
2024/03/23 02:16:13;;;;;;;39.50;23.48;;;204.90;2252.80;;;;;;5010909;28;22490;-72
2024/03/23 02:18:39;;;;;;;34.10;21.25;;;204.80;2252.80;;;;;;5009261;28;20052;-74
2024/03/23 02:21:05;;;;;;;36.45;21.98;;;204.80;2252.80;;;;;;5004733;28;20076;-72
2024/03/23 02:23:31;;;;;;;36.83;21.17;;;204.80;2252.80;;;;;;5014625;28;20092;-74
2024/03/23 02:25:57;;;;;;;35.10;21.42;;;204.80;2252.80;;;;;;5008168;28;20042;-74
2024/03/23 02:28:23;;;;;;;35.90;21.35;;;204.80;2252.80;;;;;;5014456;28;20030;-74
2024/03/23 02:30:49;;;;;;;35.15;22.35;;;180.10;2252.80;;;;;;5003812;28;20109;-75
2024/03/23 02:33:16;;;;;;;33.38;20.95;;;180.00;2252.80;;;;;;4995971;28;20381;-73
2024/03/23 02:35:42;;;;;;;36.97;21.65;;;180.00;2252.80;;;;;;5007802;28;20018;-72
2024/03/23 02:38:08;;;;;;;34.45;20.92;;;180.00;2252.80;;;;;;5014121;28;20435;-73
2024/03/23 02:40:33;;;;;;;38.75;23.13;;;180.00;2252.80;;;;;;5014232;28;20076;-75
2024/03/23 02:42:59;;;;;;;58.03;32.08;;;180.00;2252.80;;;;;;5014509;28;20026;-75
2024/03/23 02:45:25;;;;;;;64.97;32.33;;;179.90;2252.80;;;;;;4996065;28;20022;-72
2024/03/23 02:47:53;;;;;;;44.28;24.42;;;179.90;2252.80;;;;;;5014240;28;20029;-72
2024/03/23 02:50:20;;;;;;;41.10;23.33;;;179.90;2252.80;;;;;;5014340;28;20030;-75
2024/03/23 02:52:46;;;;;;;36.80;22.30;;;179.90;2252.80;;;;;;4994529;28;20122;-72
2024/03/23 02:55:11;;;;;;;41.03;24.25;;;179.90;2252.80;;;;;;5014500;28;20107;-75
2024/03/23 02:57:37;;;;;;;39.22;23.65;;;180.00;2252.80;;;;;;5014789;28;20140;-73
2024/03/23 03:00:05;;;;;;;39.17;22.88;;;179.90;2252.80;;;;;;5012846;28;20030;-74
2024/03/23 03:02:30;;;;;;;40.17;24.60;;;179.80;2252.80;;;;;;5011354;28;20030;-75
2024/03/23 03:04:56;;;;;;;44.85;25.38;;;179.90;2252.80;;;;;;5014096;28;20472;-75
2024/03/23 03:07:22;;;;;;;44.28;24.85;;;179.90;2252.80;;;;;;5015070;28;20034;-75
2024/03/23 03:09:47;;;;;;;42.38;24.58;;;179.90;2252.80;;;;;;5015551;28;20022;-75
2024/03/23 03:12:13;;;;;;;45.60;26.20;;;179.90;2252.80;;;;;;5014492;28;20326;-74
2024/03/23 03:14:39;;;;;;;38.72;23.60;;;179.90;2252.80;;;;;;5015066;28;20050;-75
2024/03/23 03:17:05;;;;;;;37.90;22.48;;;179.90;2252.80;;;;;;5013206;28;20040;-75
2024/03/23 03:19:33;;;;;;;37.63;22.42;;;179.80;2252.80;;;;;;5010074;28;20129;-75
2024/03/23 03:21:59;;;;;;;36.67;22.85;;;179.80;2252.80;;;;;;4995346;28;20505;-75
2024/03/23 03:24:25;;;;;;;39.47;23.35;;;179.60;2252.80;;;;;;4997047;28;20119;-75
2024/03/23 03:26:51;;;;;;;37.30;21.95;;;179.40;2252.80;;;;;;5010531;28;20103;-75
2024/03/23 03:29:16;;;;;;;37.80;23.17;;;179.30;2252.80;;;;;;5013625;28;20057;-75
2024/03/23 03:31:43;;;;;;;37.83;23.02;;;179.30;2252.80;;;;;;5014000;28;20026;-74
2024/03/23 03:34:09;;;;;;;38.97;23.02;;;179.30;2252.80;;;;;;5013698;28;20101;-74
2024/03/23 03:36:36;;;;;;;38.10;23.17;;;179.30;2252.80;;;;;;5011904;28;20165;-75
2024/03/23 03:39:04;;;;;;;38.95;23.70;;;179.30;2252.80;;;;;;5008760;28;20033;-74
2024/03/23 03:41:32;;;;;;;40.90;23.00;;;179.30;2252.80;;;;;;5013383;28;20107;-75
2024/03/23 03:44:01;;;;;;;39.83;23.17;;;179.30;2252.80;;;;;;5013819;28;20580;-74
2024/03/23 03:46:30;;;;;;;43.08;24.02;;;179.30;2252.80;;;;;;5013764;28;20022;-75
2024/03/23 03:48:56;;;;;;;42.13;23.50;;;179.30;2252.80;;;;;;5013559;28;20477;-75
2024/03/23 03:51:21;;;;;;;39.47;23.77;;;179.30;2252.80;;;;;;5013845;28;20053;-75
2024/03/23 03:53:47;;;;;;;40.83;24.20;;;179.40;2252.80;;;;;;5013377;28;20389;-75
2024/03/23 03:56:13;;;;;;;42.17;24.80;;;179.30;2252.80;;;;;;5012108;28;20172;-74
2024/03/23 03:58:40;;;;;;;39.88;22.48;;;179.40;2252.80;;;;;;5005851;28;20649;-75
2024/03/23 04:01:05;;;;;;;38.55;23.17;;;179.40;2252.80;;;;;;5012296;28;20028;-75
2024/03/23 04:03:31;;;;;;;42.08;23.88;;;179.40;2252.80;;;;;;5013629;28;20030;-75
2024/03/23 04:05:57;;;;;;;38.97;22.73;;;179.30;2252.80;;;;;;5013446;28;20484;-75
2024/03/23 04:08:23;;;;;;;41.35;24.13;;;179.30;2252.80;;;;;;5011794;28;20026;-76
2024/03/23 04:10:50;;;;;;;41.65;23.80;;;179.20;2252.80;;;;;;5013131;28;20116;-74
2024/03/23 04:13:16;;;;;;;40.60;23.67;;;179.20;2252.80;;;;;;5012768;28;20037;-76
2024/03/23 04:15:42;;;;;;;38.75;22.90;;;179.20;2252.80;;;;;;5012649;28;20030;-75
2024/03/23 04:18:08;;;;;;;48.35;25.85;;;179.30;2252.80;;;;;;4992945;28;22703;-75
2024/03/23 04:20:34;;;;;;;49.22;25.13;;;179.30;2252.80;;;;;;4991370;28;20034;-74
2024/03/23 04:23:00;;;;;;;46.70;25.40;;;179.30;2252.80;;;;;;5012489;28;20179;-75
2024/03/23 04:25:26;;;;;;;49.63;25.45;;;179.30;2252.80;;;;;;5012322;28;20038;-75
2024/03/23 04:27:52;;;;;;;45.15;25.67;;;179.20;2252.80;;;;;;5012346;28;20072;-74
2024/03/23 04:30:19;;;;;;;40.97;23.20;;;179.20;2252.80;;;;;;5012772;28;20026;-75
2024/03/23 04:32:45;;;;;;;44.03;23.77;;;154.50;2252.80;;;;;;5012203;28;20084;-74
2024/03/23 04:35:13;;;;;;;43.53;23.35;;;154.50;2252.80;;;;;;5011864;28;20022;-72
2024/03/23 04:37:42;;;;;;;43.75;23.10;;;154.40;2252.80;;;;;;5006886;28;20061;-72
2024/03/23 04:40:11;;;;;;;43.25;23.13;;;154.40;2252.80;;;;;;5007749;28;20018;-72
2024/03/23 04:42:37;;;;;;;40.78;22.88;;;154.40;2252.80;;;;;;5011860;28;20384;-72
2024/03/23 04:45:03;;;;;;;41.85;23.42;;;179.30;2252.80;;;;;;5011890;28;20022;-71
2024/03/23 04:47:29;;;;;;;44.50;21.90;;;154.30;2252.80;;;;;;5011863;28;20055;-71
2024/03/23 04:49:55;;;;;;;42.60;23.63;;;154.30;2252.80;;;;;;5011787;28;20025;-71
2024/03/23 04:52:20;;;;;;;40.92;21.75;;;154.30;2252.80;;;;;;5011541;28;20077;-71
2024/03/23 04:54:46;;;;;;;39.17;22.50;;;154.30;2252.80;;;;;;5013309;28;20025;-74
2024/03/23 04:57:13;;;;;;;41.55;23.70;;;154.30;2252.80;;;;;;5009280;28;20380;-73
2024/03/23 04:59:38;;;;;;;41.95;23.33;;;154.30;2252.80;;;;;;5014177;28;20457;-75
2024/03/23 05:02:04;;;;;;;41.85;24.35;;;154.40;2252.80;;;;;;5013427;28;20044;-73
2024/03/23 05:04:30;;;;;;;41.85;23.42;;;154.40;2252.80;;;;;;5013727;28;20018;-73
2024/03/23 05:06:58;;;;;;;45.65;23.05;;;154.50;2252.80;;;;;;5013658;28;20104;-73
2024/03/23 05:09:24;;;;;;;44.80;23.10;;;179.20;2252.80;;;;;;5013897;28;20033;-74
2024/03/23 05:11:49;;;;;;;42.53;24.30;;;179.30;2252.80;;;;;;5014371;28;20379;-74
2024/03/23 05:14:16;;;;;;;44.22;24.15;;;179.30;2252.80;;;;;;5013183;28;20165;-72
2024/03/23 05:16:41;;;;;;;42.45;23.95;;;179.40;2252.80;;;;;;5013034;28;20385;-73
2024/03/23 05:19:08;;;;;;;41.83;23.60;;;179.50;2252.80;;;;;;5009661;28;20108;-72
2024/03/23 05:21:36;;;;;;;42.47;23.25;;;179.60;2252.80;;;;;;5012937;28;20117;-71
2024/03/23 05:24:03;;;;;;;44.28;23.23;;;179.70;2252.80;;;;;;5013924;28;20034;-73
2024/03/23 05:26:29;;;;;;;41.65;22.20;;;205.30;2252.80;;;;;;5016564;28;20099;-74
2024/03/23 05:28:55;;;;;;;42.28;23.55;;;180.00;2252.80;;;;;;5021144;28;20552;-74
2024/03/23 05:31:31;;;;;;;40.83;23.63;;;180.00;2252.80;;;;;;5017440;28;20101;-73
2024/03/23 05:33:57;;;;;;;41.25;22.73;;;180.10;2252.80;;;;;;5017610;28;20030;-74
2024/03/23 05:36:24;;;;;;;42.38;23.80;;;204.80;2252.80;;;;;;5016766;28;20044;-73
2024/03/23 05:38:50;;;;;;;42.22;24.05;;;204.90;2252.80;;;;;;5015917;28;20400;-73
2024/03/23 05:41:16;;;;;;;46.97;24.80;;;205.00;2252.80;;;;;;5017615;28;20026;-73
2024/03/23 05:43:41;;;;;;;43.55;24.77;;;205.10;2252.80;;;;;;5017174;28;20021;-75
2024/03/23 05:46:08;;;;;;;44.45;24.15;;;205.20;2252.80;;;;;;5017665;28;20072;-76
2024/03/23 05:48:34;;;;;;;43.47;24.98;;;205.30;2252.80;;;;;;5016833;28;20140;-74
2024/03/23 05:51:00;;;;;;;43.97;24.77;;;205.50;2252.80;;;;;;5017107;28;20112;-75
2024/03/23 05:53:25;;;;;;;42.33;24.55;;;205.60;2252.80;;;;;;5016049;28;20465;-70
2024/03/23 05:55:59;;;;;;;40.05;23.73;;;205.70;2252.80;;;;;;5015397;28;20362;-74
2024/03/23 05:58:25;;;;;;;40.60;23.85;;;230.50;2252.80;;;;;;5014589;28;20141;-78
2024/03/23 06:00:58;;;;;;;43.28;23.20;;;230.50;2252.80;;;;;;5014624;28;20134;-75
2024/03/23 06:03:23;;;;;;;44.00;24.70;;;230.60;2252.80;;;;;;5013712;28;20396;-73
2024/03/23 06:05:49;;;;;;;43.10;24.00;;;230.70;2252.80;;;;;;5016251;28;20026;-74
2024/03/23 06:08:15;;;;;;;43.08;23.55;;;230.90;2252.80;;;;;;5016504;28;20030;-73
2024/03/23 06:10:40;;;;;;;40.63;23.90;;;231.00;2252.80;;;;;;5015910;28;20577;-73
2024/03/23 06:13:06;;;;;;;43.85;25.92;;;;;;;;;;5014999;28;20029;-72
2024/03/23 06:15:37;;;;;;;37.63;24.02;;;307.20;2304.00;;;;;;5016548;28;20028;-76
2024/03/23 06:18:07;;;;;;;34.60;19.80;;;384.70;2329.60;;;;;;5016266;28;20373;-73
2024/03/23 06:20:34;;;;;;;38.20;23.17;;;436.10;1971.20;;;;;;5017843;28;20020;-72
2024/03/23 06:23:02;;;;;;;34.35;21.63;;;486.80;1843.20;;;;;;5014125;28;20524;-74
2024/03/23 06:25:27;;;;;;;34.53;20.80;;;537.90;1664.00;;;;;;5013576;28;20491;-73
2024/03/23 06:27:53;;;;;;;32.72;20.13;;;563.70;1561.60;;;;;;5008655;28;20057;-73
2024/03/23 06:30:19;;;;;;;32.17;20.95;;;563.60;1587.20;;;;;;5014621;28;20022;-76
2024/03/23 06:32:44;;;;;;;34.80;22.38;;;564.00;1510.40;;;;;;5013859;28;20113;-73
2024/03/23 06:35:10;;;;;;;32.90;20.80;;;589.10;1408.00;;;;;;5014227;28;20041;-73
2024/03/23 06:37:36;;;;;;;31.98;21.40;;;588.90;1433.60;;;;;;5009300;28;20816;-75
2024/03/23 06:40:03;;;;;;;32.47;21.30;;;589.30;1408.00;;;;;;5010022;28;20033;-73
2024/03/23 06:42:28;;;;;;;33.13;20.23;;;589.70;1382.40;;;;;;5014065;28;20030;-76
2024/03/23 06:44:54;;;;;;;33.75;20.40;;;589.20;1382.40;;;;;;5013550;28;20311;-75
2024/03/23 06:47:27;;;;;;;30.98;19.48;;;563.60;1459.20;;;;;;5014771;28;20135;-76
2024/03/23 06:49:53;;;;;;;33.70;20.65;;;614.40;1356.80;;;;;;5011920;28;20018;-77
2024/03/23 06:52:19;;;;;;;32.30;21.15;;;640.90;1228.80;;;;;;5015187;28;20524;-75
2024/03/23 06:54:45;;;;;;;30.45;19.52;;;;;;;;;;5018208;28;20021;-77
2024/03/23 06:57:12;;;;;;;25.33;17.20;;;665.90;1203.20;;;;;;5020252;28;20026;-76
2024/03/23 06:59:41;;;;;;;28.77;18.83;;;;;;;;;;5015465;28;20076;-77
2024/03/23 07:02:08;;;;;;;26.52;18.58;;;;;;;;;;5019131;28;20084;-75
2024/03/23 07:04:35;;;;;;;28.42;18.52;;;665.60;1203.20;;;;;;5018755;28;20046;-75
2024/03/23 07:07:01;;;;;;;26.13;17.38;;;666.00;1203.20;;;;;;5023445;28;20132;-75
2024/03/23 07:09:30;;;;;;;25.65;17.00;;;640.40;1228.80;;;;;;5020321;28;20022;-77
2024/03/23 07:11:59;;;;;;;25.63;16.70;;;717.00;1152.00;;;;;;5017778;28;20033;-77
2024/03/23 07:14:25;;;;;;;29.42;17.70;;;691.80;1075.20;;;;;;5033883;28;20026;-78
2024/03/23 07:16:51;;;;;;;25.08;16.80;;;691.20;1100.80;;;;;;5023155;28;20442;-76
2024/03/23 07:19:17;;;;;;;23.35;16.45;;;692.00;1075.20;;;;;;5016026;28;20385;-77
2024/03/23 07:21:44;;;;;;;23.73;15.20;;;692.00;1075.20;;;;;;5015051;28;20125;-73
2024/03/23 07:24:11;;;;;;;22.50;15.75;;;717.40;1049.60;;;;;;5016181;28;20033;-74
2024/03/23 07:26:37;;;;;;;23.50;15.73;;;691.40;1100.80;;;;;;5012590;28;20061;-77
2024/03/23 07:29:04;;;;;;;20.42;14.48;;;691.60;1100.80;;;;;;5017326;28;20026;-75
2024/03/23 07:31:30;;;;;;;20.25;13.60;;;665.70;1126.40;;;;;;5016909;28;20022;-76
2024/03/23 07:33:55;;;;;;;19.60;12.93;;;615.10;1177.60;;;;;;5021223;28;20034;-77
2024/03/23 07:36:21;;;;;;;21.13;13.38;;;563.90;1305.60;;;;;;5017524;28;20500;-76
2024/03/23 07:38:47;;;;;;;20.15;13.45;;;563.20;1382.40;;;;;;5016508;28;20389;-78
2024/03/23 07:41:17;;;;;;;19.83;12.90;;;512.40;1433.60;;;;;;5016630;28;20091;-78
2024/03/23 07:43:43;;;;;;;19.58;12.38;;;512.60;1459.20;;;;;;5015830;28;20495;-78
2024/03/23 07:46:09;;;;;;;19.67;10.90;;;512.80;1459.20;;;;;;5016409;28;20549;-79
2024/03/23 07:48:35;;;;;;;18.90;12.82;;;487.20;1484.80;;;;;;5013427;28;20053;-77
2024/03/23 07:51:07;;;;;;;18.55;12.43;;;486.60;1587.20;;;;;;5012947;28;20026;-79
2024/03/23 07:53:37;;;;;;;16.25;11.40;;;461.60;1587.20;;;;;;5013413;28;20026;-77
2024/03/23 07:56:08;;;;;;;18.75;11.95;;;461.30;1638.40;;;;;;5012938;28;20030;-77
2024/03/23 07:58:34;;;;;;;16.70;11.75;;;;;;;;;;5012485;28;20041;-78
2024/03/23 08:01:08;;;;;;;15.90;11.25;;;;;;;;;;5011618;28;20026;-77
2024/03/23 08:03:34;;;;;;;18.60;11.95;;;;;;;;;;5012429;28;20030;-79
2024/03/23 08:06:13;;;;;;;19.38;11.80;;;;;;;;;;5012709;28;20029;-78
2024/03/23 08:08:39;;;;;;;20.83;11.20;;;;;;;;;;5012137;28;20056;-77
2024/03/23 08:11:06;;;;;;;20.52;11.60;;;461.50;1638.40;;;;;;5012305;28;20030;-78
2024/03/23 08:13:32;;;;;;;17.90;11.80;;;461.30;1638.40;;;;;;5012226;28;20030;-78
2024/03/23 08:15:59;;;;;;;16.45;10.40;;;461.50;1664.00;;;;;;5012561;28;20026;-77
2024/03/23 08:18:25;;;;;;;15.90;11.40;;;461.40;1638.40;;;;;;5010189;28;20041;-76
2024/03/23 08:21:11;;;;;;;19.23;12.35;;;460.90;1664.00;;;;;;5006599;28;20029;-75
2024/03/23 08:23:38;;;;;;;17.85;11.98;;;461.20;1689.60;;;;;;5002019;28;20042;-75
2024/03/23 08:26:11;;;;;;;18.05;11.10;;;486.40;1664.00;;;;;;4992618;28;20181;-77
2024/03/23 08:28:37;;;;;;;17.98;11.82;;;486.50;1638.40;;;;;;5011694;28;20079;-76
2024/03/23 08:31:10;;;;;;;19.95;10.98;;;486.60;1638.40;;;;;;5012024;28;20105;-77
2024/03/23 08:33:36;;;;;;;14.90;10.77;;;486.60;1612.80;;;;;;5012037;28;20060;-78
2024/03/23 08:36:07;;;;;;;19.98;11.40;;;486.60;1638.40;;;;;;5011906;28;20061;-77
2024/03/23 08:38:33;;;;;;;14.45;9.60;;;486.70;1638.40;;;;;;5012065;28;20037;-77
2024/03/23 08:41:01;;;;;;;13.75;9.73;;;486.50;1612.80;;;;;;4991677;28;20172;-75
2024/03/23 08:43:28;;;;;;;16.65;10.52;;;486.50;1612.80;;;;;;5009955;28;20048;-78
2024/03/23 08:45:53;;;;;;;16.52;9.93;;;486.50;1587.20;;;;;;4999086;28;20026;-78
2024/03/23 08:48:20;;;;;;;16.88;10.32;;;487.00;1587.20;;;;;;5011830;28;20034;-78
2024/03/23 08:50:47;;;;;;;16.23;9.95;;;486.80;1612.80;;;;;;5022295;28;20032;-79
2024/03/23 08:53:13;;;;;;;14.45;9.32;;;486.90;1587.20;;;;;;5011387;28;20033;-77
2024/03/23 08:55:39;;;;;;;13.35;9.32;;;487.00;1587.20;;;;;;5011790;28;20537;-78
2024/03/23 08:58:08;;;;;;;12.75;8.15;;;486.80;1587.20;;;;;;5011867;28;20133;-78
2024/03/23 09:00:34;;;;;;;13.30;8.48;;;487.00;1561.60;;;;;;5011251;28;20029;-79
2024/03/23 09:03:01;;;;;;;13.18;8.10;;;487.20;1561.60;;;;;;5024145;28;20029;-75
2024/03/23 09:05:28;;;;;;;15.50;9.10;;;487.00;1561.60;;;;;;5031224;28;20075;-78
2024/03/23 09:07:54;;;;;;;14.20;9.55;;;487.00;1587.20;;;;;;5013203;28;20431;-76
2024/03/23 09:10:20;;;;;;;12.15;8.10;;;487.20;1561.60;;;;;;5031131;28;20022;-78
2024/03/23 09:12:45;;;;;;;14.40;9.10;;;487.00;1561.60;;;;;;5031144;28;20033;-79
2024/03/23 09:15:11;;;;;;;12.98;8.40;;;487.00;1587.20;;;;;;5030548;28;20025;-77
2024/03/23 09:17:37;;;;;;;13.85;7.53;;;512.10;1561.60;;;;;;5030994;28;20106;-78
2024/03/23 09:20:04;;;;;;;11.38;7.75;;;512.40;1536.00;;;;;;5031467;28;20061;-78
2024/03/23 09:22:30;;;;;;;11.80;7.25;;;512.60;1536.00;;;;;;5027769;28;20477;-77
2024/03/23 09:24:55;;;;;;;11.25;7.60;;;512.30;1536.00;;;;;;5006720;28;20113;-78
2024/03/23 09:27:21;;;;;;;13.82;8.10;;;512.50;1510.40;;;;;;5009548;28;20064;-79
2024/03/23 09:29:47;;;;;;;9.65;6.53;;;512.70;1484.80;;;;;;5009187;28;20018;-80
2024/03/23 09:32:12;;;;;;;9.25;6.40;;;512.50;1510.40;;;;;;5012000;28;20026;-77
2024/03/23 09:34:38;;;;;;;10.20;6.60;;;512.80;1484.80;;;;;;5025508;28;20449;-77
2024/03/23 09:37:04;;;;;;;9.40;6.55;;;512.80;1459.20;;;;;;5025549;28;20045;-78
2024/03/23 09:39:30;;;;;;;13.32;7.50;;;512.90;1459.20;;;;;;5025661;28;20034;-79
2024/03/23 09:41:58;;;;;;;11.68;7.50;;;512.90;1459.20;;;;;;5021291;28;20028;-77
2024/03/23 09:44:26;;;;;;;10.98;6.32;;;512.80;1459.20;;;;;;5013261;28;20032;-76
2024/03/23 09:46:51;;;;;;;12.10;7.07;;;537.90;1510.40;;;;;;5013134;28;20050;-78
2024/03/23 09:49:17;;;;;;;10.00;6.80;;;537.90;1484.80;;;;;;5014430;28;20026;-75
2024/03/23 09:51:43;;;;;;;8.20;5.63;;;538.00;1484.80;;;;;;5016591;28;20088;-76
2024/03/23 09:54:09;;;;;;;9.15;6.22;;;537.70;1484.80;;;;;;5017050;28;20103;-76
2024/03/23 09:56:35;;;;;;;8.43;5.65;;;538.00;1484.80;;;;;;5014651;28;20060;-75
2024/03/23 09:59:02;;;;;;;8.52;5.70;;;538.00;1459.20;;;;;;5014260;28;20492;-76
2024/03/23 10:01:30;;;;;;;10.60;6.20;;;537.80;1510.40;;;;;;5010719;28;20041;-76
2024/03/23 10:03:56;;;;;;;13.32;7.78;;;538.10;1459.20;;;;;;4992952;28;20091;-72
2024/03/23 10:06:24;;;;;;;8.10;5.05;;;538.40;1433.60;;;;;;5015149;28;20034;-74
2024/03/23 10:08:51;;;;;;;8.70;6.15;;;538.10;1433.60;;;;;;5000209;28;20392;-75
2024/03/23 10:11:17;;;;;;;9.38;6.10;;;538.40;1433.60;;;;;;5019419;28;20022;-75
2024/03/23 10:13:43;;;;;;;10.57;5.82;;;538.50;1433.60;;;;;;5022147;28;20065;-74
2024/03/23 10:16:10;;;;;;;12.15;6.55;;;563.70;1433.60;;;;;;5020190;28;20037;-77
2024/03/23 10:18:40;;;;;;;8.02;5.03;;;563.50;1408.00;;;;;;5022592;28;20046;-72
2024/03/23 10:21:05;;;;;;;12.52;5.80;;;563.70;1408.00;;;;;;5019503;28;20086;-77
2024/03/23 10:23:38;;;;;;;9.18;5.65;;;563.50;1433.60;;;;;;5021162;28;20053;-76
2024/03/23 10:26:27;;;;;;;8.18;5.65;;;563.80;1433.60;;;;;;5018448;28;20029;-79
2024/03/23 10:28:59;;;;;;;14.13;7.55;;;563.90;1408.00;;;;;;5005756;28;20045;-77
2024/03/23 10:31:25;;;;;;;12.68;7.15;;;588.80;1408.00;;;;;;5016614;28;20769;-77
2024/03/23 10:33:53;;;;;;;8.80;5.53;;;564.00;1408.00;;;;;;5020912;28;20030;-76
2024/03/23 10:36:20;;;;;;;7.07;4.65;;;564.00;1408.00;;;;;;5017059;28;20029;-77
2024/03/23 10:38:54;;;;;;;9.73;5.57;;;563.50;1433.60;;;;;;5018945;28;20026;-78
2024/03/23 10:41:20;;;;;;;8.20;5.30;;;563.70;1433.60;;;;;;5006066;28;20832;-74
2024/03/23 10:43:48;;;;;;;8.90;5.40;;;563.80;1433.60;;;;;;5018884;28;20036;-75
2024/03/23 10:46:14;;;;;;;9.75;5.43;;;563.80;1433.60;;;;;;5018091;28;20140;-80
2024/03/23 10:48:40;;;;;;;6.65;4.25;;;563.30;1408.00;;;;;;5017711;28;20497;-75
2024/03/23 10:51:08;;;;;;;10.10;6.30;;;563.60;1408.00;;;;;;5006605;28;20030;-77
2024/03/23 10:53:38;;;;;;;7.70;5.50;;;563.70;1408.00;;;;;;5012124;28;20021;-77
2024/03/23 10:56:05;;;;;;;6.40;4.38;;;588.80;1356.80;;;;;;5014546;28;20081;-75
2024/03/23 10:58:46;;;;;;;6.15;4.85;;;588.80;1356.80;;;;;;5020012;28;20157;-76
2024/03/23 11:01:16;;;;;;;8.25;5.05;;;589.20;1356.80;;;;;;5012476;28;20100;-76
2024/03/23 11:03:46;;;;;;;8.38;4.97;;;589.60;1331.20;;;;;;5018595;28;20116;-74
2024/03/23 11:06:35;;;;;;;6.35;4.25;;;614.40;1331.20;;;;;;5019911;28;20081;-76
2024/03/23 11:09:01;;;;;;;8.93;5.38;;;589.30;1331.20;;;;;;5022892;28;20026;-76
2024/03/23 11:11:28;;;;;;;7.97;4.55;;;589.30;1356.80;;;;;;5020472;28;20064;-77
2024/03/23 11:13:54;;;;;;;7.35;4.00;;;589.40;1305.60;;;;;;5025789;28;20036;-74
2024/03/23 11:16:29;;;;;;;5.88;3.80;;;588.90;1356.80;;;;;;5020799;28;20038;-73
2024/03/23 11:19:15;;;;;;;;;;;589.00;1356.80;;;;;;5024289;28;20068;-77
2024/03/23 11:21:54;;;;;;;5.75;3.58;;;589.20;1331.20;;;;;;5025018;28;19893;-76
2024/03/23 11:24:20;;;;;;;7.13;3.28;;;589.30;1305.60;;;;;;5026037;28;20481;-76
2024/03/23 11:26:47;;;;;;;5.40;3.08;;;589.60;1280.00;;;;;;5027896;28;20050;-76
2024/03/23 11:29:15;;;;;;;4.45;3.30;;;589.40;1305.60;;;;;;5012915;28;20033;-77
2024/03/23 11:31:51;;;;;;;5.88;3.22;;;589.70;1331.20;;;;;;5004379;28;20034;-75
2024/03/23 11:34:17;;;;;;;6.13;3.33;;;614.70;1305.60;;;;;;4996909;28;20498;-76
2024/03/23 11:36:46;;;;;;;4.95;2.42;;;614.90;1510.40;;;;;;5018826;28;20034;-75
2024/03/23 11:39:20;;;;;;;7.10;2.80;;;614.90;1254.40;;;;;;5020425;28;20408;-76
2024/03/23 11:41:52;;;;;;;5.55;3.13;;;614.80;1228.80;;;;;;5019886;28;20103;-75
2024/03/23 11:44:20;;;;;;;6.47;2.90;;;614.80;1280.00;;;;;;5009348;28;20735;-76
2024/03/23 11:46:46;;;;;;;4.50;3.30;;;615.00;1228.80;;;;;;5026461;28;20046;-74
2024/03/23 11:49:25;;;;;;;3.78;2.53;;;615.20;1203.20;;;;;;5026553;28;20029;-75
2024/03/23 11:51:53;;;;;;;4.85;2.90;;;589.70;1254.40;;;;;;5023249;28;20028;-75
2024/03/23 11:54:24;;;;;;;3.88;2.85;;;614.80;1228.80;;;;;;5025321;28;20689;-77
2024/03/23 11:57:03;;;;;;;5.63;2.90;;;614.70;1228.80;;;;;;5026514;28;20105;-78
2024/03/23 11:59:42;;;;;;;6.22;3.05;;;615.00;1228.80;;;;;;5023973;28;20045;-76
2024/03/23 12:02:10;;;;;;;8.13;3.05;;;614.70;1228.80;;;;;;5030960;28;20073;-77
2024/03/23 12:04:36;;;;;;;8.82;2.75;;;614.70;1228.80;;;;;;5029150;28;20017;-76
2024/03/23 12:07:18;;;;;;;4.00;3.00;;;614.70;1228.80;;;;;;5029740;28;20040;-78
2024/03/23 12:09:48;;;;;;;5.45;2.85;;;614.80;1203.20;;;;;;5028732;28;20563;-77
2024/03/23 12:12:18;;;;;;;5.28;3.17;;;614.70;1228.80;;;;;;5024550;28;20069;-76
2024/03/23 12:15:05;;;;;;;8.63;2.97;;;615.20;1177.60;;;;;;5025847;28;20021;-76
2024/03/23 12:17:31;;;;;;;5.47;3.40;;;640.20;1152.00;;;;;;5024895;28;20033;-81
2024/03/23 12:19:57;;;;;;;7.43;3.88;;;640.50;1152.00;;;;;;5018085;28;20397;-80
2024/03/23 12:22:26;;;;;;;4.63;2.88;;;640.60;1152.00;;;;;;5021770;28;20034;-75
2024/03/23 12:24:52;;;;;;;4.57;2.83;;;615.20;1152.00;;;;;;5029964;28;20010;-76